Time;durP1;ratioP1;P1;durP2;ratioP2;P2;SDS_P1;SDS_P2;PMS_P1;PMS_P2;Temp;Humidity;BMP_temperature;BMP_pressure;BME280_temperature;BME280_humidity;BME280_pressure;Samples;Min_cycle;Max_cycle;Signal;HPM_P1;HPM_P2
2023/04/25 00:01:57;;;;;;;7.72;2.40;;;7.40;99.90;;;;;;5094007;28;20044;-84
2023/04/25 00:04:23;;;;;;;14.10;2.53;;;7.40;99.90;;;;;;5093104;28;20093;-84
2023/04/25 00:06:48;;;;;;;10.07;2.65;;;7.30;99.90;;;;;;5092662;28;20039;-84
2023/04/25 00:09:15;;;;;;;14.18;2.28;;;7.40;99.90;;;;;;5093852;28;20062;-84
2023/04/25 00:11:40;;;;;;;11.20;2.30;;;7.40;99.90;;;;;;5093740;28;20036;-84
2023/04/25 00:14:06;;;;;;;15.38;2.72;;;7.30;99.90;;;;;;5093829;28;20114;-84
2023/04/25 00:16:34;;;;;;;18.73;3.30;;;7.40;99.90;;;;;;5093531;28;20040;-84
2023/04/25 00:19:02;;;;;;;10.95;2.10;;;7.50;99.90;;;;;;5093849;28;20044;-84
2023/04/25 00:21:28;;;;;;;7.28;1.80;;;7.50;99.90;;;;;;5093806;28;20040;-84
2023/04/25 00:23:56;;;;;;;16.17;2.35;;;7.50;99.90;;;;;;5093393;28;20052;-84
2023/04/25 00:26:22;;;;;;;12.10;1.60;;;7.50;99.90;;;;;;5094271;28;20044;-84
2023/04/25 00:28:48;;;;;;;8.93;1.90;;;7.50;99.90;;;;;;5093587;28;20067;-85
2023/04/25 00:31:14;;;;;;;7.88;1.80;;;7.50;99.90;;;;;;5093462;28;20032;-84
2023/04/25 00:33:40;;;;;;;7.03;1.48;;;7.40;99.90;;;;;;5093447;28;20487;-84
2023/04/25 00:36:06;;;;;;;14.25;2.13;;;7.50;99.90;;;;;;5093611;28;20101;-85
2023/04/25 00:38:32;;;;;;;17.60;2.33;;;7.40;99.90;;;;;;5093498;28;20131;-85
2023/04/25 00:40:57;;;;;;;14.70;2.38;;;7.40;99.90;;;;;;5093574;28;20119;-84
2023/04/25 00:43:30;;;;;;;11.52;2.10;;;7.40;99.90;;;;;;5093562;28;20039;-85
2023/04/25 00:45:57;;;;;;;7.27;1.80;;;7.40;99.90;;;;;;5093669;28;20112;-85
2023/04/25 00:48:23;;;;;;;10.77;2.75;;;7.40;99.90;;;;;;5093450;28;20298;-85
2023/04/25 00:50:56;;;;;;;11.70;2.35;;;7.30;99.90;;;;;;5093544;28;20040;-84
2023/04/25 00:53:22;;;;;;;9.68;2.92;;;7.30;99.90;;;;;;5092560;28;20052;-85
2023/04/25 00:55:50;;;;;;;14.80;3.97;;;7.30;99.90;;;;;;5093443;28;20052;-84
2023/04/25 00:58:17;;;;;;;12.70;3.40;;;7.30;99.90;;;;;;5093455;28;20055;-84
2023/04/25 01:00:45;;;;;;;12.95;2.90;;;7.30;99.90;;;;;;5092324;28;20041;-84
2023/04/25 01:03:11;;;;;;;16.52;2.90;;;7.30;99.90;;;;;;5092127;28;20055;-84
2023/04/25 01:05:37;;;;;;;9.35;2.05;;;7.30;99.90;;;;;;5093521;28;20122;-84
2023/04/25 01:08:03;;;;;;;11.20;2.15;;;7.30;99.90;;;;;;5092200;28;20135;-84
2023/04/25 01:10:28;;;;;;;8.38;2.05;;;7.40;99.90;;;;;;5093392;28;20127;-84
2023/04/25 01:12:54;;;;;;;12.00;2.67;;;7.30;99.90;;;;;;5093357;28;20445;-84
2023/04/25 01:15:20;;;;;;;14.65;2.78;;;7.30;99.90;;;;;;5093326;28;20048;-84
2023/04/25 01:17:46;;;;;;;13.05;2.58;;;7.20;99.90;;;;;;5093291;28;20064;-85
2023/04/25 01:20:13;;;;;;;8.60;2.25;;;7.30;99.90;;;;;;5093290;28;20477;-85
2023/04/25 01:22:39;;;;;;;11.25;1.85;;;7.30;99.90;;;;;;5092994;28;20104;-84
2023/04/25 01:25:10;;;;;;;10.60;2.25;;;7.20;99.90;;;;;;5091823;28;20131;-85
2023/04/25 01:27:37;;;;;;;11.60;2.30;;;7.20;99.90;;;;;;5093452;28;20139;-84
2023/04/25 01:30:04;;;;;;;10.85;2.08;;;7.20;99.90;;;;;;5096825;28;20044;-84
2023/04/25 01:32:37;;;;;;;17.52;3.00;;;7.20;99.90;;;;;;5095566;28;20118;-85
2023/04/25 01:35:08;;;;;;;10.43;2.08;;;7.20;99.90;;;;;;5096637;28;20040;-85
2023/04/25 01:37:41;;;;;;;15.02;2.38;;;7.10;99.90;;;;;;5095722;28;20048;-84
2023/04/25 01:40:11;;;;;;;16.17;2.25;;;7.10;99.90;;;;;;5096676;28;20040;-84
2023/04/25 01:42:40;;;;;;;13.63;1.83;;;7.10;99.90;;;;;;5095293;28;20536;-84
2023/04/25 01:45:07;;;;;;;11.32;2.10;;;7.10;99.90;;;;;;5096565;28;20051;-84
2023/04/25 01:47:34;;;;;;;11.43;2.80;;;7.10;99.90;;;;;;5096424;28;20042;-85
2023/04/25 01:50:01;;;;;;;12.43;2.53;;;7.10;99.90;;;;;;5096408;28;20509;-84
2023/04/25 01:52:26;;;;;;;15.85;2.38;;;7.10;99.90;;;;;;5096421;28;20124;-85
2023/04/25 01:54:53;;;;;;;11.23;2.42;;;7.00;99.90;;;;;;5096593;28;20083;-85
2023/04/25 01:57:18;;;;;;;11.02;2.88;;;7.00;99.90;;;;;;5096371;28;20115;-85
2023/04/25 01:59:45;;;;;;;6.40;1.20;;;7.00;99.90;;;;;;5096270;28;20122;-84
2023/04/25 02:02:10;;;;;;;10.23;1.38;;;6.90;99.90;;;;;;5094967;28;20097;-84
2023/04/25 02:04:36;;;;;;;10.20;1.83;;;7.00;99.90;;;;;;5094752;28;20040;-84
2023/04/25 02:07:02;;;;;;;7.13;1.35;;;6.90;99.90;;;;;;5095862;28;20094;-84
2023/04/25 02:09:28;;;;;;;10.57;2.47;;;6.90;99.90;;;;;;5096103;28;20127;-85
2023/04/25 02:11:54;;;;;;;10.70;1.98;;;6.90;99.90;;;;;;5094929;28;20083;-85
2023/04/25 02:14:19;;;;;;;9.18;1.90;;;6.80;99.90;;;;;;5095946;28;20048;-84
2023/04/25 02:16:46;;;;;;;12.80;2.05;;;6.90;99.90;;;;;;5096002;28;20040;-84
2023/04/25 02:19:11;;;;;;;6.97;1.23;;;6.90;99.90;;;;;;5094437;28;20052;-84
2023/04/25 02:21:37;;;;;;;11.55;3.30;;;6.90;99.90;;;;;;5095886;28;20040;-84
2023/04/25 02:24:08;;;;;;;4.82;0.90;;;6.90;99.90;;;;;;5095536;28;20139;-85
2023/04/25 02:26:36;;;;;;;7.43;2.08;;;7.00;99.90;;;;;;5095817;28;20047;-84
2023/04/25 02:29:02;;;;;;;6.97;1.70;;;7.00;99.90;;;;;;5095588;28;20051;-84
2023/04/25 02:31:27;;;;;;;9.73;2.05;;;7.00;99.90;;;;;;5095589;28;20043;-84
2023/04/25 02:33:53;;;;;;;7.50;1.35;;;7.00;99.90;;;;;;5094164;28;20042;-84
2023/04/25 02:36:19;;;;;;;16.65;2.63;;;6.90;99.90;;;;;;5095583;28;20049;-83
2023/04/25 02:38:44;;;;;;;11.80;1.70;;;6.90;99.90;;;;;;5095369;28;20090;-83
2023/04/25 02:41:10;;;;;;;7.07;1.85;;;6.90;99.90;;;;;;5095462;28;20078;-85
2023/04/25 02:43:35;;;;;;;13.80;2.83;;;6.80;99.90;;;;;;5095291;28;20044;-84
2023/04/25 02:46:01;;;;;;;7.95;1.50;;;6.90;99.90;;;;;;5095232;28;20233;-84
2023/04/25 02:48:28;;;;;;;7.88;2.42;;;6.90;99.90;;;;;;5095241;28;20067;-84
2023/04/25 02:50:54;;;;;;;7.15;1.52;;;6.80;99.90;;;;;;5094138;28;20101;-85
2023/04/25 02:53:19;;;;;;;7.78;2.20;;;6.80;99.90;;;;;;5095674;28;20032;-84
2023/04/25 02:55:45;;;;;;;7.55;1.67;;;6.80;99.90;;;;;;5095043;28;20456;-85
2023/04/25 02:58:10;;;;;;;6.40;1.55;;;6.80;99.90;;;;;;5095293;28;20051;-85
2023/04/25 03:00:36;;;;;;;11.82;1.73;;;6.90;99.90;;;;;;5095067;28;20059;-85
2023/04/25 03:03:02;;;;;;;7.75;2.17;;;6.80;99.90;;;;;;5093610;28;20083;-84
2023/04/25 03:05:27;;;;;;;9.30;1.42;;;6.70;99.90;;;;;;5095046;28;20111;-84
2023/04/25 03:07:53;;;;;;;15.00;2.10;;;6.70;99.90;;;;;;5095022;28;20075;-84
2023/04/25 03:10:18;;;;;;;8.73;1.58;;;6.80;99.90;;;;;;5094896;28;20036;-85
2023/04/25 03:12:44;;;;;;;10.80;1.67;;;6.80;99.90;;;;;;5094942;28;20038;-84
2023/04/25 03:15:10;;;;;;;10.05;1.80;;;6.80;99.90;;;;;;5094552;28;20559;-84
2023/04/25 03:17:36;;;;;;;8.23;1.35;;;6.70;99.90;;;;;;5093519;28;20503;-84
2023/04/25 03:20:03;;;;;;;8.02;1.98;;;6.80;99.90;;;;;;5093439;28;20052;-84
2023/04/25 03:22:29;;;;;;;10.82;1.55;;;6.70;99.90;;;;;;5094541;28;20044;-84
2023/04/25 03:24:55;;;;;;;10.23;1.90;;;6.70;99.90;;;;;;5093424;28;20059;-84
2023/04/25 03:27:21;;;;;;;7.88;1.42;;;6.70;99.90;;;;;;5093332;28;20056;-84
2023/04/25 03:29:46;;;;;;;11.70;1.85;;;6.70;99.90;;;;;;5094454;28;20044;-84
2023/04/25 03:32:12;;;;;;;9.55;1.75;;;6.70;99.90;;;;;;5094505;28;20097;-84
2023/04/25 03:34:37;;;;;;;6.53;1.23;;;6.70;99.90;;;;;;5093304;28;20039;-84
2023/04/25 03:37:03;;;;;;;13.23;2.10;;;6.60;99.90;;;;;;5094324;28;20069;-84
2023/04/25 03:39:29;;;;;;;10.70;2.00;;;6.70;99.90;;;;;;5094375;28;20118;-84
2023/04/25 03:41:55;;;;;;;7.65;2.08;;;6.60;99.90;;;;;;5094413;28;20074;-84
2023/04/25 03:44:21;;;;;;;9.82;1.55;;;6.60;99.90;;;;;;5094233;28;20083;-84
2023/04/25 03:46:46;;;;;;;6.50;1.25;;;6.60;99.90;;;;;;5094421;28;20043;-83
2023/04/25 03:49:12;;;;;;;8.85;1.77;;;6.60;99.90;;;;;;5094418;28;20044;-84
2023/04/25 03:51:37;;;;;;;11.77;1.92;;;6.60;99.90;;;;;;5093502;28;20113;-84
2023/04/25 03:54:03;;;;;;;13.15;2.17;;;6.60;99.90;;;;;;5094139;28;20088;-84
2023/04/25 03:56:29;;;;;;;10.38;1.80;;;6.50;99.90;;;;;;5093209;28;20059;-84
2023/04/25 03:58:55;;;;;;;11.40;1.60;;;6.50;99.90;;;;;;5094016;28;20048;-84
2023/04/25 04:01:20;;;;;;;8.10;1.25;;;6.50;99.90;;;;;;5094067;28;20043;-84
2023/04/25 04:03:46;;;;;;;8.18;1.40;;;6.50;99.90;;;;;;5092657;28;20452;-83
2023/04/25 04:06:12;;;;;;;9.13;1.50;;;6.50;99.90;;;;;;5093842;28;20093;-85
2023/04/25 04:08:38;;;;;;;8.65;1.52;;;6.50;99.90;;;;;;5093624;28;20047;-84
2023/04/25 04:11:04;;;;;;;10.63;1.70;;;6.40;99.90;;;;;;5091146;28;20048;-84
2023/04/25 04:13:30;;;;;;;8.73;1.50;;;6.50;99.90;;;;;;5093561;28;20040;-84
2023/04/25 04:15:57;;;;;;;13.70;1.92;;;6.50;99.90;;;;;;5093761;28;20050;-84
2023/04/25 04:18:22;;;;;;;10.07;2.13;;;6.50;99.90;;;;;;5093732;28;20048;-84
2023/04/25 04:20:48;;;;;;;11.32;2.13;;;6.40;99.90;;;;;;5093682;28;20050;-84
2023/04/25 04:23:14;;;;;;;6.90;1.73;;;6.50;99.90;;;;;;5093287;28;20132;-84
2023/04/25 04:25:40;;;;;;;8.63;1.23;;;6.60;99.90;;;;;;5093656;28;20044;-84
2023/04/25 04:28:07;;;;;;;6.35;1.52;;;6.60;99.90;;;;;;5093387;28;20048;-84
2023/04/25 04:30:36;;;;;;;4.70;1.15;;;6.70;99.90;;;;;;5093325;28;20511;-84
2023/04/25 04:33:02;;;;;;;7.38;1.00;;;6.60;99.90;;;;;;5092570;28;20036;-84
2023/04/25 04:35:28;;;;;;;8.07;1.83;;;6.50;99.90;;;;;;5093346;28;20433;-84
2023/04/25 04:37:54;;;;;;;4.45;0.80;;;6.40;99.90;;;;;;5093566;28;20473;-84
2023/04/25 04:40:20;;;;;;;10.55;1.35;;;6.30;99.90;;;;;;5092416;28;20053;-84
2023/04/25 04:42:46;;;;;;;8.30;1.20;;;6.30;99.90;;;;;;5093513;28;20040;-83
2023/04/25 04:45:12;;;;;;;8.57;1.85;;;6.30;99.90;;;;;;5093639;28;20040;-84
2023/04/25 04:47:39;;;;;;;10.90;1.80;;;6.20;99.90;;;;;;5093625;28;20044;-84
2023/04/25 04:50:09;;;;;;;14.35;2.17;;;6.20;99.90;;;;;;5093872;28;20127;-83
2023/04/25 04:52:38;;;;;;;4.95;1.20;;;6.20;99.90;;;;;;5093772;28;20040;-83
2023/04/25 04:55:05;;;;;;;9.77;1.50;;;6.30;99.90;;;;;;5093201;28;20416;-84
2023/04/25 04:57:32;;;;;;;7.25;1.33;;;6.30;99.90;;;;;;5093206;28;20051;-82
2023/04/25 04:59:58;;;;;;;9.15;1.83;;;6.40;99.90;;;;;;5093432;28;20104;-83
2023/04/25 05:02:24;;;;;;;12.68;1.90;;;6.50;99.90;;;;;;5093240;28;20067;-82
2023/04/25 05:04:51;;;;;;;10.13;1.60;;;6.50;99.90;;;;;;5096982;28;20396;-83
2023/04/25 05:07:17;;;;;;;8.20;2.03;;;6.50;99.90;;;;;;5097120;28;20125;-83
2023/04/25 05:09:43;;;;;;;8.98;2.30;;;6.50;99.90;;;;;;5097106;28;20058;-84
2023/04/25 05:12:09;;;;;;;5.50;2.28;;;6.60;99.90;;;;;;5097196;28;20036;-84
2023/04/25 05:14:35;;;;;;;7.65;1.00;;;6.60;99.90;;;;;;5096476;28;20055;-84
2023/04/25 05:17:00;;;;;;;6.95;1.38;;;6.60;99.90;;;;;;5096731;28;20422;-84
2023/04/25 05:19:26;;;;;;;11.65;1.58;;;6.50;99.90;;;;;;5096680;28;20094;-84
2023/04/25 05:21:52;;;;;;;9.48;1.80;;;6.60;99.90;;;;;;5096980;28;20051;-84
2023/04/25 05:24:18;;;;;;;12.95;1.95;;;6.60;99.90;;;;;;5096502;28;20058;-84
2023/04/25 05:26:44;;;;;;;7.50;1.25;;;6.60;99.90;;;;;;5096874;28;20044;-84
2023/04/25 05:29:10;;;;;;;8.80;1.70;;;6.60;99.90;;;;;;5096784;28;20502;-84
2023/04/25 05:31:36;;;;;;;9.68;1.65;;;6.70;99.90;;;;;;5096750;28;20191;-84
2023/04/25 05:34:02;;;;;;;10.55;1.65;;;6.60;99.90;;;;;;5096500;28;20127;-84
2023/04/25 05:36:28;;;;;;;6.35;1.13;;;6.60;99.90;;;;;;5095181;28;20089;-84
2023/04/25 05:38:54;;;;;;;7.50;1.73;;;6.60;99.90;;;;;;5096363;28;20040;-85
2023/04/25 05:41:20;;;;;;;5.13;1.17;;;6.60;99.90;;;;;;5096465;28;20082;-84
2023/04/25 05:43:48;;;;;;;10.05;1.13;;;6.70;99.90;;;;;;5096581;28;20356;-84
2023/04/25 05:46:14;;;;;;;10.02;1.60;;;6.80;99.90;;;;;;5096919;28;20092;-84
2023/04/25 05:48:39;;;;;;;10.85;0.98;;;6.90;99.90;;;;;;5096386;28;20122;-84
2023/04/25 05:51:05;;;;;;;7.05;1.40;;;7.10;99.90;;;;;;5096393;28;20044;-83
2023/04/25 05:53:31;;;;;;;12.02;2.15;;;7.20;99.90;;;;;;5096103;28;20058;-84
2023/04/25 05:55:56;;;;;;;6.10;1.15;;;7.40;99.90;;;;;;5096357;28;20044;-83
2023/04/25 05:58:22;;;;;;;9.32;1.75;;;7.50;99.90;;;;;;5094731;28;20048;-83
2023/04/25 06:00:48;;;;;;;10.93;2.58;;;7.60;99.90;;;;;;5096117;28;20108;-83
2023/04/25 06:03:16;;;;;;;5.47;0.73;;;7.50;99.90;;;;;;5096237;28;20105;-83
2023/04/25 06:05:42;;;;;;;6.35;1.23;;;7.60;99.90;;;;;;5095794;28;20495;-83
2023/04/25 06:08:08;;;;;;;10.30;1.33;;;7.50;99.90;;;;;;5094493;28;20044;-84
2023/04/25 06:10:34;;;;;;;9.20;1.85;;;7.60;99.90;;;;;;5095814;28;20040;-84
2023/04/25 06:13:00;;;;;;;8.27;1.58;;;7.60;99.90;;;;;;5095992;28;20114;-84
2023/04/25 06:15:25;;;;;;;9.77;1.58;;;7.40;99.90;;;;;;5095400;28;20039;-84
2023/04/25 06:17:51;;;;;;;12.85;1.80;;;7.30;99.90;;;;;;5095603;28;20372;-84
2023/04/25 06:20:17;;;;;;;8.93;1.10;;;7.20;99.90;;;;;;5095861;28;20040;-84
2023/04/25 06:22:42;;;;;;;6.75;1.33;;;7.10;99.90;;;;;;5095514;28;20048;-84
2023/04/25 06:25:10;;;;;;;4.65;1.10;;;7.00;99.90;;;;;;5094374;28;20403;-83
2023/04/25 06:27:39;;;;;;;5.60;0.95;;;7.00;99.90;;;;;;5095719;28;20047;-83
2023/04/25 06:30:06;;;;;;;1.85;0.75;;;7.00;99.90;;;;;;5095580;28;20072;-82
2023/04/25 06:32:32;;;;;;;12.65;3.33;;;7.10;99.90;;;;;;5094170;28;20137;-84
2023/04/25 06:34:57;;;;;;;4.38;0.80;;;7.10;99.90;;;;;;5095612;28;20048;-84
2023/04/25 06:37:23;;;;;;;4.88;0.80;;;7.10;99.90;;;;;;5095522;28;20040;-83
2023/04/25 06:39:49;;;;;;;10.82;1.20;;;7.10;99.90;;;;;;5095304;28;20048;-83
2023/04/25 06:42:14;;;;;;;9.00;1.20;;;7.10;99.90;;;;;;5095265;28;20048;-84
2023/04/25 06:44:40;;;;;;;7.65;1.30;;;7.20;99.90;;;;;;5093929;28;20036;-83
2023/04/25 06:47:06;;;;;;;6.25;1.25;;;7.20;99.90;;;;;;5095385;28;20040;-81
2023/04/25 06:49:31;;;;;;;5.65;0.80;;;7.30;99.90;;;;;;5095273;28;20093;-80
2023/04/25 06:51:57;;;;;;;7.22;1.00;;;7.30;99.90;;;;;;5093774;28;20044;-84
2023/04/25 06:54:24;;;;;;;7.03;1.05;;;7.40;99.90;;;;;;5093710;28;20050;-84
2023/04/25 06:56:50;;;;;;;5.30;0.88;;;7.30;99.90;;;;;;5094895;28;20464;-84
2023/04/25 06:59:16;;;;;;;9.48;0.70;;;7.30;99.90;;;;;;5095165;28;20044;-85
2023/04/25 07:01:41;;;;;;;5.35;0.90;;;7.30;99.90;;;;;;5095066;28;20051;-85
2023/04/25 07:04:07;;;;;;;7.32;1.67;;;7.30;99.90;;;;;;5095080;28;20048;-85
2023/04/25 07:06:33;;;;;;;5.45;0.70;;;7.20;99.90;;;;;;5094730;28;20040;-85
2023/04/25 07:08:59;;;;;;;3.72;1.00;;;7.00;99.90;;;;;;5094850;28;20395;-84
2023/04/25 07:11:24;;;;;;;4.22;0.60;;;6.80;99.90;;;;;;5094674;28;20040;-87
2023/04/25 07:13:50;;;;;;;3.67;0.55;;;6.80;99.90;;;;;;5094910;28;20054;-84
2023/04/25 07:16:16;;;;;;;2.65;0.60;;;6.70;99.90;;;;;;5094546;28;20048;-84
2023/04/25 07:18:42;;;;;;;2.13;0.85;;;6.80;99.90;;;;;;5094774;28;20068;-84
2023/04/25 07:21:07;;;;;;;6.28;1.88;;;7.00;99.90;;;;;;5094476;28;20442;-85
2023/04/25 07:23:33;;;;;;;5.03;0.85;;;7.30;99.90;;;;;;5094481;28;20143;-86
2023/04/25 07:25:58;;;;;;;5.85;1.00;;;7.50;99.90;;;;;;5092390;28;20059;-85
2023/04/25 07:28:25;;;;;;;6.88;1.48;;;7.60;99.90;;;;;;5094573;28;20044;-85
2023/04/25 07:30:50;;;;;;;5.47;1.13;;;7.50;99.90;;;;;;5094220;28;20415;-88
2023/04/25 07:33:20;;;;;;;12.25;1.55;;;7.20;99.90;;;;;;5094445;28;20078;-85
2023/04/25 07:35:45;;;;;;;7.60;0.93;;;6.90;99.90;;;;;;5094297;28;20109;-88
2023/04/25 07:38:11;;;;;;;5.57;0.77;;;6.60;99.90;;;;;;5094492;28;20039;-88
2023/04/25 07:40:37;;;;;;;5.88;0.60;;;6.70;99.90;;;;;;5092870;28;20106;-87
2023/04/25 07:43:02;;;;;;;3.28;0.73;;;6.50;99.90;;;;;;5094269;28;20104;-86
2023/04/25 07:45:28;;;;;;;9.23;0.98;;;6.30;99.90;;;;;;5093052;28;20052;-85
2023/04/25 07:47:53;;;;;;;2.92;0.90;;;6.10;99.90;;;;;;5094195;28;20040;-85
2023/04/25 07:50:19;;;;;;;6.60;0.90;;;6.00;99.90;;;;;;5086954;28;20044;-85
2023/04/25 07:52:45;;;;;;;4.53;0.90;;;5.90;99.90;;;;;;5074065;28;20053;-85
2023/04/25 07:55:11;;;;;;;3.72;0.70;;;5.80;99.90;;;;;;5073597;28;20047;-84
2023/04/25 07:57:38;;;;;;;3.40;0.80;;;5.90;99.90;;;;;;5073587;28;20119;-84
2023/04/25 08:00:05;;;;;;;5.13;0.70;;;6.10;99.90;;;;;;5072126;28;20098;-84
2023/04/25 08:02:30;;;;;;;2.97;0.73;;;6.20;99.90;;;;;;5073454;28;20381;-85
2023/04/25 08:04:56;;;;;;;7.15;1.20;;;6.30;99.90;;;;;;5073202;28;20139;-85
2023/04/25 08:07:22;;;;;;;5.90;1.83;;;6.40;99.90;;;;;;5073642;28;20403;-85
2023/04/25 08:09:47;;;;;;;7.45;1.10;;;6.60;99.90;;;;;;5073322;28;20079;-85
2023/04/25 08:12:13;;;;;;;8.10;1.10;;;6.80;99.90;;;;;;5073518;28;20047;-85
2023/04/25 08:14:39;;;;;;;8.70;1.30;;;7.10;99.90;;;;;;5073297;28;20521;-85
2023/04/25 08:17:05;;;;;;;11.90;1.55;;;7.40;99.90;;;;;;5071935;28;20044;-86
2023/04/25 08:19:31;;;;;;;6.90;1.17;;;7.70;99.90;;;;;;5073015;28;20048;-85
2023/04/25 08:21:57;;;;;;;16.23;1.17;;;8.00;99.90;;;;;;5073424;28;20049;-85
2023/04/25 08:24:23;;;;;;;13.02;2.00;;;8.20;99.90;;;;;;5071775;28;20080;-86
2023/04/25 08:26:51;;;;;;;19.67;1.83;;;8.50;99.90;;;;;;5073056;28;20052;-86
2023/04/25 08:29:17;;;;;;;8.25;1.70;;;8.60;99.90;;;;;;5073272;28;20048;-87
2023/04/25 08:31:43;;;;;;;7.03;1.48;;;8.70;99.90;;;;;;5071816;28;20399;-85
2023/04/25 08:34:09;;;;;;;9.85;1.55;;;8.90;99.90;;;;;;5073068;28;20040;-86
2023/04/25 08:36:35;;;;;;;6.00;1.10;;;9.00;99.90;;;;;;5073290;28;20491;-85
2023/04/25 08:39:00;;;;;;;4.72;1.17;;;9.00;99.90;;;;;;5077149;28;20043;-84
2023/04/25 08:41:27;;;;;;;7.38;2.10;;;9.10;99.90;;;;;;5077809;28;20041;-84
2023/04/25 08:43:55;;;;;;;9.40;1.55;;;9.30;99.90;;;;;;5077399;28;20096;-85
2023/04/25 08:46:22;;;;;;;5.70;1.20;;;9.50;99.90;;;;;;5077237;28;20040;-88
2023/04/25 08:48:50;;;;;;;6.97;2.05;;;9.60;99.90;;;;;;5076883;28;20041;-87
2023/04/25 08:51:24;;;;;;;5.20;1.20;;;9.60;99.90;;;;;;5075830;28;20053;-87
2023/04/25 08:53:52;;;;;;;7.10;1.20;;;9.30;99.90;;;;;;5077180;28;20040;-87
2023/04/25 08:56:20;;;;;;;3.30;1.40;;;9.10;99.90;;;;;;5076734;28;20484;-86
2023/04/25 08:58:48;;;;;;;3.92;0.88;;;8.90;99.90;;;;;;5076751;28;20554;-86
2023/04/25 09:01:13;;;;;;;3.47;0.90;;;8.70;99.90;;;;;;5076593;28;20510;-85
2023/04/25 09:03:40;;;;;;;6.13;1.05;;;8.90;99.90;;;;;;5076937;28;20048;-86
2023/04/25 09:06:05;;;;;;;8.27;1.02;;;9.00;99.90;;;;;;5076911;28;20051;-87
2023/04/25 09:08:31;;;;;;;10.52;1.88;;;9.00;99.90;;;;;;5076516;28;20404;-87
2023/04/25 09:10:57;;;;;;;7.22;1.17;;;8.90;99.90;;;;;;5075317;28;20484;-86
2023/04/25 09:13:27;;;;;;;5.93;1.48;;;8.90;99.90;;;;;;5076503;28;20037;-86
2023/04/25 09:15:55;;;;;;;6.13;1.65;;;9.00;99.90;;;;;;5076708;28;20066;-86
2023/04/25 09:18:25;;;;;;;5.10;1.27;;;8.80;99.90;;;;;;5076618;28;20037;-87
2023/04/25 09:20:52;;;;;;;11.18;2.40;;;8.90;99.90;;;;;;5076391;28;20492;-85
2023/04/25 09:23:21;;;;;;;9.65;0.90;;;9.00;99.90;;;;;;5076361;28;20048;-85
2023/04/25 09:25:53;;;;;;;8.45;1.70;;;9.30;99.90;;;;;;5076532;28;20044;-85
2023/04/25 09:28:28;;;;;;;11.70;1.65;;;9.40;99.90;;;;;;5076039;28;20049;-86
2023/04/25 09:30:57;;;;;;;5.57;1.27;;;9.50;99.90;;;;;;5076213;28;20049;-86
2023/04/25 09:33:29;;;;;;;9.10;1.73;;;9.70;99.90;;;;;;5076114;28;20033;-87
2023/04/25 09:36:05;;;;;;;4.85;1.42;;;9.80;99.90;;;;;;5076424;28;20045;-87
2023/04/25 09:38:32;;;;;;;12.77;1.98;;;10.00;99.90;;;;;;5075907;28;20036;-86
2023/04/25 09:41:00;;;;;;;9.57;1.80;;;10.20;99.90;;;;;;5075902;28;20404;-87
2023/04/25 09:43:27;;;;;;;6.75;1.38;;;10.10;99.90;;;;;;5076226;28;20067;-87
2023/04/25 09:45:57;;;;;;;7.38;1.42;;;10.10;99.90;;;;;;5076024;28;20076;-86
2023/04/25 09:48:24;;;;;;;9.00;1.63;;;10.00;99.90;;;;;;5073758;28;20047;-86
2023/04/25 09:51:06;;;;;;;11.90;2.80;;;10.00;99.90;;;;;;5076024;28;20091;-85
2023/04/25 09:53:33;;;;;;;12.25;1.58;;;9.80;99.90;;;;;;5076025;28;20124;-85
2023/04/25 09:56:00;;;;;;;8.40;1.20;;;10.10;99.90;;;;;;5076073;28;20064;-88
2023/04/25 09:58:30;;;;;;;10.68;1.52;;;10.30;99.90;;;;;;5076237;28;20064;-88
2023/04/25 10:01:00;;;;;;;8.23;1.17;;;10.50;99.90;;;;;;5075867;28;20119;-87
2023/04/25 10:03:26;;;;;;;13.02;1.55;;;10.70;99.90;;;;;;5075978;28;20161;-86
2023/04/25 10:05:54;;;;;;;8.27;1.48;;;10.60;99.90;;;;;;5074640;28;20049;-88
2023/04/25 10:08:20;;;;;;;13.10;2.25;;;10.50;99.90;;;;;;5074513;28;20059;-87
2023/04/25 10:10:48;;;;;;;5.57;1.13;;;10.00;99.90;;;;;;5075552;28;20079;-86
2023/04/25 10:13:15;;;;;;;7.65;1.70;;;9.60;99.90;;;;;;5075517;28;20048;-88
2023/04/25 10:15:41;;;;;;;5.50;0.98;;;9.30;99.90;;;;;;5074121;28;20060;-88
2023/04/25 10:18:07;;;;;;;11.98;1.98;;;9.10;99.90;;;;;;5075310;28;20040;-88
2023/04/25 10:20:33;;;;;;;7.53;1.20;;;8.90;99.90;;;;;;5073930;28;20040;-88
2023/04/25 10:23:13;;;;;;;5.07;0.93;;;8.80;99.90;;;;;;5075151;28;20134;-86
2023/04/25 10:25:40;;;;;;;4.40;0.70;;;9.10;99.90;;;;;;5073960;28;20051;-86
2023/04/25 10:28:05;;;;;;;4.00;0.77;;;9.30;99.90;;;;;;5075446;28;20073;-86
2023/04/25 10:30:31;;;;;;;7.63;1.15;;;9.50;99.90;;;;;;5073771;28;20044;-87
2023/04/25 10:32:59;;;;;;;4.53;0.88;;;9.30;99.90;;;;;;5074984;28;20044;-85
2023/04/25 10:35:30;;;;;;;8.90;1.30;;;9.30;99.90;;;;;;5075276;28;20086;-86
2023/04/25 10:38:13;;;;;;;11.32;1.30;;;9.40;99.90;;;;;;5075334;28;20037;-85
2023/04/25 10:40:39;;;;;;;5.57;1.05;;;9.40;99.90;;;;;;5075089;28;20079;-85
2023/04/25 10:43:42;;;;;;;5.18;1.27;;;9.50;99.90;;;;;;5074736;28;20067;-85
2023/04/25 10:46:18;;;;;;;7.63;1.08;;;9.60;99.90;;;;;;5061722;28;20059;-85
2023/04/25 10:48:51;;;;;;;11.80;1.30;;;9.60;99.90;;;;;;5095244;28;20127;-84
2023/04/25 10:51:24;;;;;;;10.23;1.73;;;9.70;99.90;;;;;;5094896;28;20518;-84
2023/04/25 10:53:55;;;;;;;7.00;0.95;;;9.80;99.90;;;;;;5095228;28;20067;-83
2023/04/25 10:56:21;;;;;;;4.85;1.10;;;9.80;99.90;;;;;;5094729;28;20047;-86
2023/04/25 10:58:48;;;;;;;7.88;1.67;;;9.90;99.90;;;;;;5093842;28;20048;-85
2023/04/25 11:01:19;;;;;;;4.55;1.00;;;10.00;99.90;;;;;;5094746;28;20048;-85
2023/04/25 11:03:45;;;;;;;7.20;1.48;;;10.00;99.90;;;;;;5094681;28;20188;-85
2023/04/25 11:06:31;;;;;;;9.50;1.30;;;10.00;99.90;;;;;;5094518;28;20118;-85
2023/04/25 11:08:59;;;;;;;6.78;1.83;;;10.20;99.90;;;;;;5094885;28;20075;-84
2023/04/25 11:11:26;;;;;;;8.00;1.85;;;10.30;99.90;;;;;;5094904;28;20051;-82
2023/04/25 11:13:51;;;;;;;14.52;1.73;;;10.40;99.90;;;;;;5093249;28;20123;-88
2023/04/25 11:16:17;;;;;;;7.78;1.58;;;10.40;99.90;;;;;;5094747;28;20165;-83
2023/04/25 11:18:44;;;;;;;6.38;1.42;;;10.60;99.90;;;;;;5085998;28;20048;-85
2023/04/25 11:21:11;;;;;;;8.45;1.42;;;10.70;99.90;;;;;;5089475;28;20044;-86
2023/04/25 11:23:37;;;;;;;5.60;0.90;;;10.70;99.90;;;;;;5089654;28;20048;-85
2023/04/25 11:26:07;;;;;;;5.38;0.95;;;10.70;99.90;;;;;;5090350;28;20043;-83
2023/04/25 11:28:32;;;;;;;4.72;1.00;;;10.70;99.90;;;;;;5089699;28;20632;-86
2023/04/25 11:30:58;;;;;;;4.45;0.77;;;10.60;99.90;;;;;;5074750;28;20052;-84
2023/04/25 11:33:25;;;;;;;9.00;1.27;;;10.60;99.90;;;;;;5091137;28;20051;-90
2023/04/25 11:35:54;;;;;;;6.82;0.88;;;10.60;99.90;;;;;;5073624;28;20041;-85
2023/04/25 11:38:20;;;;;;;7.30;1.20;;;10.70;99.90;;;;;;5081647;28;20044;-85
2023/04/25 11:40:51;;;;;;;6.93;1.33;;;10.70;99.90;;;;;;5093225;28;20047;-86
2023/04/25 11:43:17;;;;;;;5.90;1.20;;;10.70;99.90;;;;;;5093905;28;20113;-84
2023/04/25 11:45:47;;;;;;;9.07;1.27;;;10.60;99.90;;;;;;5092619;28;20423;-84
2023/04/25 11:48:13;;;;;;;4.50;0.80;;;10.70;99.90;;;;;;5092362;28;20044;-85
2023/04/25 11:50:40;;;;;;;6.35;1.10;;;10.60;99.90;;;;;;5080794;28;20051;-85
2023/04/25 11:53:06;;;;;;;7.85;1.23;;;10.40;99.90;;;;;;5089368;28;20047;-85
2023/04/25 11:55:31;;;;;;;6.88;1.02;;;10.60;99.90;;;;;;5089133;28;20036;-85
2023/04/25 11:58:00;;;;;;;5.85;1.15;;;10.50;99.90;;;;;;5089970;28;20088;-85
2023/04/25 12:00:26;;;;;;;7.68;1.10;;;10.40;99.90;;;;;;5088523;28;21145;-85
2023/04/25 12:02:53;;;;;;;8.63;1.20;;;10.40;99.90;;;;;;5089201;28;20040;-84
2023/04/25 12:05:20;;;;;;;5.28;0.93;;;10.40;99.90;;;;;;5089793;28;20440;-85
2023/04/25 12:07:46;;;;;;;3.30;0.60;;;10.60;99.90;;;;;;5089594;28;20040;-85
2023/04/25 12:10:14;;;;;;;5.53;1.15;;;10.70;99.90;;;;;;5087325;28;20051;-85
2023/04/25 12:12:44;;;;;;;11.88;1.48;;;10.80;99.90;;;;;;5088524;28;20047;-85
2023/04/25 12:15:15;;;;;;;4.60;1.00;;;10.80;99.90;;;;;;5088178;28;20139;-85
2023/04/25 12:17:52;;;;;;;10.63;1.20;;;10.80;99.90;;;;;;5088174;28;20040;-85
2023/04/25 12:20:20;;;;;;;6.90;1.48;;;10.90;99.90;;;;;;5087800;28;20179;-84
2023/04/25 12:22:49;;;;;;;6.88;1.52;;;10.90;99.90;;;;;;5087118;28;20055;-85
2023/04/25 12:25:41;;;;;;;5.97;1.20;;;11.10;99.90;;;;;;5088620;28;20487;-85
2023/04/25 12:28:20;;;;;;;3.58;0.60;;;11.00;99.90;;;;;;5089169;28;20726;-85
2023/04/25 12:31:01;;;;;;;10.10;1.13;;;10.60;99.90;;;;;;5089101;28;20032;-88
2023/04/25 12:33:35;;;;;;;7.22;1.10;;;10.60;99.90;;;;;;5089458;28;20059;-84
2023/04/25 12:36:08;;;;;;;4.38;0.93;;;10.70;99.90;;;;;;5089847;28;20055;-85
2023/04/25 12:38:38;;;;;;;6.68;1.00;;;10.80;99.90;;;;;;5089057;28;20756;-85
2023/04/25 12:41:04;;;;;;;4.70;0.90;;;10.90;99.90;;;;;;5088359;28;20128;-85
2023/04/25 12:43:30;;;;;;;8.70;1.77;;;10.90;99.90;;;;;;5089007;28;20078;-85
2023/04/25 12:45:56;;;;;;;7.57;1.10;;;11.00;99.90;;;;;;5089078;28;20088;-85
2023/04/25 12:48:22;;;;;;;6.78;1.40;;;10.70;99.90;;;;;;5088135;28;20503;-85
2023/04/25 12:50:50;;;;;;;6.03;0.75;;;10.90;99.90;;;;;;5088656;28;20024;-84
2023/04/25 12:53:23;;;;;;;5.35;1.40;;;10.80;99.90;;;;;;5087697;28;20044;-85